Fengcheng, China
Current Conditions -  °F | °C
As of 1:00 PM on Saturday 20 Dec 2014 (Local Time) from ZGHA Reporting Station
Clear Clear  
Wind Chill: 57°   Ceiling: Unl
Heat Index: 57°   Visibility: 6mi
Dew Point: 32°   Wind: 9mph
Humidity: 38%   Direction: 120°ESE
Pressure: 30.21"   Gusts: NA
Location:  28.2°N, 115.77°E
Report Text: ZGHA 200500Z 12004MPS 080V160 CAVOK 14/00 Q1023 NOSIG
Loading
Personal Weather Stations






























Interactive Weather Map New forecast layout! Learn more

10-Day Weather Forecast

Advertisements
Track Severe Weather on mobile